createdAt,value
2022-08-05T00:00:50.215Z,90.1
2022-08-05T00:01:51.081Z,90.0
2022-08-05T00:02:52.666Z,90.1
2022-08-05T00:03:53.228Z,90.1
2022-08-05T00:04:55.756Z,90.0
2022-08-05T00:06:04.755Z,89.8
2022-08-05T00:06:58.000Z,90.0
2022-08-05T00:08:01.454Z,90.3
2022-08-05T00:09:01.067Z,89.8
2022-08-05T00:10:01.631Z,90.4
2022-08-05T00:11:02.226Z,90.0
2022-08-05T00:12:02.845Z,90.0
2022-08-05T00:13:04.435Z,90.0
2022-08-05T00:14:13.056Z,90.3
2022-08-05T00:15:13.997Z,90.5
2022-08-05T00:16:08.720Z,90.5
2022-08-05T00:17:19.544Z,90.6
2022-08-05T00:18:21.849Z,90.5
2022-08-05T00:19:12.487Z,91.2
2022-08-05T00:20:13.170Z,90.9
2022-08-05T00:21:14.804Z,91.0
2022-08-05T00:22:15.374Z,91.0
2022-08-05T00:23:16.965Z,90.8
2022-08-05T00:24:19.274Z,91.0
2022-08-05T00:25:19.155Z,91.0
2022-08-05T00:26:19.779Z,91.4
2022-08-05T00:27:20.368Z,91.4
2022-08-05T00:28:29.652Z,91.4
2022-08-05T00:29:25.755Z,91.7
2022-08-05T00:30:32.026Z,91.8
2022-08-05T00:31:53.571Z,92.2
2022-08-05T00:32:28.315Z,92.3
2022-08-05T00:34:54.485Z,92.5
2022-08-05T00:34:54.550Z,92.9
2022-08-05T00:35:33.124Z,93.0
2022-08-05T00:37:13.024Z,93.0
2022-08-05T00:37:50.371Z,92.8
2022-08-05T00:38:36.860Z,93.8
2022-08-05T00:39:43.989Z,93.8
2022-08-05T00:40:39.046Z,94.3
2022-08-05T00:41:52.004Z,94.4
2022-08-05T00:42:42.224Z,94.3
2022-08-05T00:43:49.674Z,94.4
2022-08-05T00:44:45.408Z,94.4
2022-08-05T00:45:46.147Z,94.6
2022-08-05T00:46:47.738Z,94.2
2022-08-05T00:47:56.434Z,94.8
2022-08-05T00:48:50.425Z,94.7
2022-08-05T00:49:51.943Z,95.1
2022-08-05T00:50:52.531Z,95.3
2022-08-05T00:51:53.174Z,95.4
2022-08-05T00:52:55.140Z,95.8
2022-08-05T00:54:02.159Z,96.2
2022-08-05T00:54:56.194Z,96.0
2022-08-05T00:55:56.817Z,96.5
2022-08-05T00:56:57.415Z,96.5
2022-08-05T00:57:59.305Z,96.8
2022-08-05T00:59:00.209Z,97.2
2022-08-05T01:00:00.928Z,96.9
2022-08-05T01:01:01.622Z,97.0
2022-08-05T01:02:02.141Z,97.0
2022-08-05T01:03:02.739Z,97.8
2022-08-05T01:04:04.329Z,97.5
2022-08-05T01:05:10.214Z,97.2
2022-08-05T01:06:11.161Z,97.5
2022-08-05T01:07:08.126Z,97.5
2022-08-05T01:08:41.548Z,97.5
2022-08-05T01:09:11.313Z,97.6
2022-08-05T01:10:11.925Z,98.0
2022-08-05T01:11:13.640Z,98.0
2022-08-05T01:12:18.617Z,97.8
2022-08-05T01:13:22.276Z,97.8
2022-08-05T01:14:17.459Z,97.6
2022-08-05T01:15:36.232Z,97.7
2022-08-05T01:16:26.068Z,98.3
2022-08-05T01:17:22.445Z,98.3
2022-08-05T01:18:23.213Z,98.6
2022-08-05T01:19:36.534Z,98.4
2022-08-05T01:20:25.404Z,99.2
2022-08-05T01:21:26.018Z,98.9
2022-08-05T01:22:27.911Z,99.5
2022-08-05T01:23:34.760Z,99.5
2022-08-05T01:24:30.114Z,99.5
2022-08-05T01:25:40.356Z,100.0
2022-08-05T01:26:32.018Z,100.0
2022-08-05T01:27:33.154Z,100.0
2022-08-05T01:28:33.703Z,100.0
2022-08-05T01:29:35.297Z,100.0
2022-08-05T01:30:35.915Z,100.0
2022-08-05T01:31:44.558Z,100.0
2022-08-05T01:32:38.107Z,100.0
2022-08-05T01:33:38.706Z,100.0
2022-08-05T01:34:40.300Z,100.0
2022-08-05T01:35:50.757Z,100.0
2022-08-05T01:36:47.084Z,100.0
2022-08-05T01:37:45.077Z,100.0
2022-08-05T01:38:46.198Z,100.0
2022-08-05T01:39:48.094Z,100.0
2022-08-05T01:40:48.683Z,100.0
2022-08-05T01:41:50.195Z,100.0
2022-08-05T01:42:50.794Z,100.0
2022-08-05T01:43:51.395Z,100.0
2022-08-05T01:44:54.325Z,100.0
2022-08-05T01:45:56.326Z,100.0
2022-08-05T01:46:55.652Z,100.0
2022-08-05T01:47:56.253Z,100.0
2022-08-05T01:48:57.845Z,100.0
2022-08-05T01:50:01.475Z,100.0
2022-08-05T01:51:00.193Z,100.0
2022-08-05T01:52:01.628Z,100.0
2022-08-05T01:53:03.220Z,100.0
2022-08-05T01:54:04.474Z,100.0
2022-08-05T01:55:05.584Z,100.0
2022-08-05T01:56:08.962Z,100.0
2022-08-05T01:58:09.367Z,100.0
2022-08-05T01:58:15.749Z,100.0
2022-08-05T01:59:11.441Z,100.0
2022-08-05T02:00:12.490Z,100.0
2022-08-05T02:01:13.097Z,100.0
2022-08-05T02:02:13.836Z,100.0
2022-08-05T02:03:24.229Z,100.0
2022-08-05T02:04:16.962Z,100.0
2022-08-05T02:05:17.664Z,100.0
2022-08-05T02:06:37.464Z,100.0
2022-08-05T02:07:22.437Z,100.0
2022-08-05T02:08:29.728Z,100.0
2022-08-05T02:09:23.056Z,100.0
2022-08-05T02:10:28.466Z,100.0
2022-08-05T02:11:32.747Z,100.0
2022-08-05T02:12:25.860Z,100.0
2022-08-05T02:13:26.459Z,100.0
2022-08-05T02:14:27.126Z,100.0
2022-08-05T02:15:31.166Z,100.0
2022-08-05T02:16:29.319Z,100.0
2022-08-05T02:18:31.726Z,100.0
2022-08-05T02:18:34.947Z,100.0
2022-08-05T02:19:34.188Z,100.0
2022-08-05T02:20:38.983Z,100.0
2022-08-05T02:21:43.127Z,100.0
2022-08-05T02:22:38.091Z,100.0
2022-08-05T02:23:38.837Z,100.0
2022-08-05T02:24:39.695Z,100.0
2022-08-05T02:25:50.227Z,100.0
2022-08-05T02:26:51.892Z,100.0
2022-08-05T02:27:58.000Z,100.0
2022-08-05T02:28:46.231Z,100.0
2022-08-05T02:29:59.542Z,100.0
2022-08-05T02:30:51.785Z,100.0
2022-08-05T02:31:49.985Z,100.0
2022-08-05T02:32:50.732Z,100.0
2022-08-05T02:33:57.881Z,100.0
2022-08-05T02:34:54.951Z,100.0
2022-08-05T02:35:56.232Z,100.0
2022-08-05T02:36:55.130Z,100.0
2022-08-05T02:37:55.727Z,100.0
2022-08-05T02:38:57.712Z,100.0
2022-08-05T02:39:58.363Z,100.0
2022-08-05T02:40:58.962Z,100.0
2022-08-05T02:42:01.577Z,100.0
2022-08-05T02:43:02.146Z,100.0
2022-08-05T02:44:11.182Z,100.0
2022-08-05T02:45:04.340Z,100.0
2022-08-05T02:46:04.950Z,100.0
2022-08-05T02:47:05.539Z,100.0
2022-08-05T02:48:11.426Z,100.0
2022-08-05T02:49:11.104Z,100.0
2022-08-05T02:50:09.317Z,100.0
2022-08-05T02:51:10.913Z,100.0
2022-08-05T02:52:25.852Z,100.0
2022-08-05T02:53:19.004Z,100.0
2022-08-05T02:54:34.801Z,100.0
2022-08-05T02:55:17.620Z,100.0
2022-08-05T02:56:19.077Z,100.0
2022-08-05T02:58:10.281Z,100.0
2022-08-05T02:58:21.674Z,100.0
2022-08-05T02:59:22.423Z,100.0
2022-08-05T03:00:25.547Z,100.0
2022-08-05T03:01:24.877Z,100.0
2022-08-05T03:02:27.660Z,100.0
2022-08-05T03:03:27.121Z,100.0
2022-08-05T03:04:28.714Z,100.0
2022-08-05T03:06:53.999Z,100.0
2022-08-05T03:06:57.253Z,100.0
2022-08-05T03:08:00.736Z,100.0
2022-08-05T03:08:34.089Z,100.0
2022-08-05T03:09:37.369Z,100.0
2022-08-05T03:10:35.306Z,100.0
2022-08-05T03:11:54.455Z,100.0
2022-08-05T03:12:37.521Z,100.0
2022-08-05T03:13:52.036Z,100.0
2022-08-05T03:14:45.727Z,100.0
2022-08-05T03:15:41.305Z,100.0
2022-08-05T03:16:41.904Z,100.0
2022-08-05T03:17:44.851Z,100.0
2022-08-05T03:18:44.093Z,100.0
2022-08-05T03:19:45.909Z,100.0
2022-08-05T03:20:48.614Z,100.0
2022-08-05T03:21:49.845Z,100.0
2022-08-05T03:22:50.123Z,100.0
2022-08-05T03:23:51.080Z,100.0
2022-08-05T03:24:52.108Z,100.0
2022-08-05T03:26:30.321Z,100.0
2022-08-05T03:26:54.383Z,100.0
2022-08-05T03:28:00.074Z,100.0
2022-08-05T03:28:57.342Z,100.0
2022-08-05T03:30:08.765Z,100.0
2022-08-05T03:30:59.694Z,100.0
2022-08-05T03:32:00.444Z,100.0
2022-08-05T03:33:01.278Z,100.0
2022-08-05T03:34:02.287Z,100.0
2022-08-05T03:35:04.466Z,100.0
2022-08-05T03:36:04.503Z,100.0
2022-08-05T03:37:06.096Z,100.0
2022-08-05T03:38:06.695Z,100.0
2022-08-05T03:39:07.330Z,100.0
2022-08-05T03:40:08.576Z,100.0
2022-08-05T03:41:10.972Z,100.0
2022-08-05T03:42:11.613Z,100.0
2022-08-05T03:43:58.743Z,100.0
2022-08-05T03:44:13.806Z,100.0
2022-08-05T03:45:21.499Z,100.0
2022-08-05T03:46:16.989Z,100.0
2022-08-05T03:47:18.582Z,100.0
2022-08-05T03:48:21.941Z,100.0
2022-08-05T03:49:20.779Z,100.0
2022-08-05T03:50:22.374Z,100.0
2022-08-05T03:52:36.555Z,100.0
2022-08-05T03:52:49.192Z,100.0
2022-08-05T03:55:00.074Z,100.0
2022-08-05T03:55:53.869Z,100.0
2022-08-05T03:56:05.358Z,100.0
2022-08-05T03:56:35.166Z,100.0
2022-08-05T03:57:42.478Z,100.0
2022-08-05T03:58:34.159Z,100.0
2022-08-05T03:59:47.011Z,100.0
2022-08-05T04:00:36.357Z,100.0
2022-08-05T04:01:36.990Z,100.0
2022-08-05T04:02:51.932Z,100.0
2022-08-05T04:03:39.280Z,100.0
2022-08-05T04:04:39.883Z,100.0
2022-08-05T04:05:41.478Z,100.0
2022-08-05T04:06:47.522Z,100.0
2022-08-05T04:07:57.746Z,100.0
2022-08-05T04:08:45.329Z,100.0
2022-08-05T04:09:53.171Z,100.0
2022-08-05T04:10:48.556Z,100.0
2022-08-05T04:11:52.558Z,100.0
2022-08-05T04:12:50.715Z,100.0
2022-08-05T04:13:53.576Z,100.0
2022-08-05T04:14:52.912Z,100.0
2022-08-05T04:16:04.250Z,100.0
2022-08-05T04:16:56.105Z,100.0
2022-08-05T04:18:00.101Z,100.0
2022-08-05T04:18:58.303Z,100.0
2022-08-05T04:19:59.899Z,100.0
2022-08-05T04:21:01.495Z,100.0
2022-08-05T04:22:09.917Z,100.0
2022-08-05T04:23:03.713Z,100.0
2022-08-05T04:24:06.192Z,100.0
2022-08-05T04:25:05.893Z,100.0
2022-08-05T04:26:06.496Z,100.0
2022-08-05T04:27:07.639Z,100.0
2022-08-05T04:28:12.843Z,100.0
2022-08-05T04:29:09.840Z,100.0
2022-08-05T04:30:10.442Z,100.0
2022-08-05T04:31:11.049Z,100.0
2022-08-05T04:32:11.664Z,100.0
2022-08-05T04:33:12.473Z,100.0
2022-08-05T04:34:19.379Z,100.0
2022-08-05T04:35:19.438Z,100.0
2022-08-05T04:36:45.081Z,100.0
2022-08-05T04:37:17.861Z,100.0
2022-08-05T04:38:18.466Z,100.0
2022-08-05T04:39:19.120Z,100.0
2022-08-05T04:40:20.315Z,100.0
2022-08-05T04:41:20.912Z,100.0
2022-08-05T04:42:25.526Z,100.0
2022-08-05T04:43:23.128Z,100.0
2022-08-05T04:44:30.123Z,100.0
2022-08-05T04:45:47.845Z,100.0
2022-08-05T04:46:28.675Z,100.0
2022-08-05T04:47:29.283Z,100.0
2022-08-05T04:48:30.881Z,100.0
2022-08-05T04:50:01.119Z,100.0
2022-08-05T04:50:34.430Z,100.0
2022-08-05T04:51:33.703Z,100.0
2022-08-05T04:52:35.299Z,100.0
2022-08-05T04:53:35.905Z,100.0
2022-08-05T04:54:36.507Z,100.0
2022-08-05T04:56:11.968Z,100.0
2022-08-05T04:56:38.710Z,100.0
2022-08-05T04:57:39.334Z,100.0
2022-08-05T04:58:40.929Z,100.0
2022-08-05T04:59:42.020Z,100.0
2022-08-05T05:00:42.624Z,100.0
2022-08-05T05:02:07.093Z,100.0
2022-08-05T05:02:44.842Z,100.0
2022-08-05T05:03:46.061Z,100.0
2022-08-05T05:04:47.607Z,100.0
2022-08-05T05:06:38.918Z,100.0
2022-08-05T05:06:57.422Z,100.0
2022-08-05T05:07:52.975Z,100.0
2022-08-05T05:08:53.046Z,100.0
2022-08-05T05:09:54.645Z,100.0
2022-08-05T05:10:55.973Z,100.0
2022-08-05T05:12:01.746Z,100.0
2022-08-05T05:12:58.438Z,100.0
2022-08-05T05:13:59.103Z,100.0
2022-08-05T05:14:59.721Z,100.0
2022-08-05T05:16:06.114Z,100.0
2022-08-05T05:17:03.303Z,100.0
2022-08-05T05:18:04.149Z,100.0
2022-08-05T05:19:18.628Z,100.0
2022-08-05T05:20:06.852Z,100.0
2022-08-05T05:21:07.457Z,100.0
2022-08-05T05:22:23.841Z,100.0
2022-08-05T05:23:19.596Z,100.0
2022-08-05T05:24:11.251Z,100.0
2022-08-05T05:25:16.575Z,100.0
2022-08-05T05:26:14.327Z,100.0
2022-08-05T05:27:15.880Z,100.0
2022-08-05T05:28:17.444Z,100.0
2022-08-05T05:29:18.073Z,100.0
2022-08-05T05:30:29.247Z,100.0
2022-08-05T05:31:20.287Z,100.0
2022-08-05T05:32:21.491Z,100.0
2022-08-05T05:33:23.439Z,100.0
2022-08-05T05:34:26.629Z,100.0
2022-08-05T05:35:25.288Z,100.0
2022-08-05T05:36:28.371Z,100.0
2022-08-05T05:37:29.220Z,100.0
2022-08-05T05:38:29.084Z,100.0
2022-08-05T05:39:29.716Z,100.0
2022-08-05T05:40:31.447Z,100.0
2022-08-05T05:41:40.024Z,100.0
2022-08-05T05:42:34.373Z,100.0
2022-08-05T05:43:58.051Z,100.0
2022-08-05T05:44:42.930Z,100.0
2022-08-05T05:45:38.216Z,100.0
2022-08-05T05:46:39.814Z,100.0
2022-08-05T05:48:06.224Z,100.0
2022-08-05T05:48:43.965Z,100.0
2022-08-05T05:49:43.943Z,100.0
2022-08-05T05:50:45.541Z,100.0
2022-08-05T05:51:49.659Z,100.0
2022-08-05T05:52:47.745Z,100.0
2022-08-05T05:53:57.259Z,100.0
2022-08-05T05:54:51.285Z,100.0
2022-08-05T05:56:00.456Z,100.0
2022-08-05T05:56:53.141Z,100.0
2022-08-05T05:57:53.788Z,100.0
2022-08-05T05:58:54.390Z,100.0
2022-08-05T05:59:55.989Z,100.0
2022-08-05T06:00:57.570Z,100.0
2022-08-05T06:01:59.168Z,100.0
2022-08-05T06:02:59.772Z,100.0
2022-08-05T06:04:03.877Z,100.0
2022-08-05T06:05:03.549Z,100.0
2022-08-05T06:06:04.565Z,100.0
2022-08-05T06:07:05.167Z,100.0
2022-08-05T06:08:05.771Z,100.0
2022-08-05T06:09:07.604Z,100.0
2022-08-05T06:10:10.354Z,100.0
2022-08-05T06:11:09.882Z,100.0
2022-08-05T06:12:12.048Z,100.0
2022-08-05T06:13:12.099Z,100.0
2022-08-05T06:14:12.740Z,100.0
2022-08-05T06:15:23.543Z,100.0
2022-08-05T06:16:30.546Z,100.0
2022-08-05T06:17:24.402Z,100.0
2022-08-05T06:18:17.124Z,100.0
2022-08-05T06:19:33.975Z,100.0
2022-08-05T06:20:21.689Z,100.0
2022-08-05T06:21:21.232Z,100.0
2022-08-05T06:22:21.838Z,100.0
2022-08-05T06:23:22.445Z,100.0
2022-08-05T06:24:25.728Z,100.0
2022-08-05T06:26:13.877Z,100.0
2022-08-05T06:26:26.470Z,100.0
2022-08-05T06:28:12.248Z,100.0
2022-08-05T06:28:28.743Z,100.0
2022-08-05T06:29:49.317Z,100.0
2022-08-05T06:30:30.959Z,100.0
2022-08-05T06:31:32.305Z,100.0
2022-08-05T06:32:33.161Z,100.0
2022-08-05T06:34:06.889Z,100.0
2022-08-05T06:34:35.363Z,100.0
2022-08-05T06:36:07.665Z,100.0
2022-08-05T06:36:58.283Z,100.0
2022-08-05T06:37:56.926Z,100.0
2022-08-05T06:38:40.759Z,100.0
2022-08-05T06:39:42.355Z,100.0
2022-08-05T06:40:44.482Z,100.0
2022-08-05T06:41:45.332Z,100.0
2022-08-05T06:42:45.949Z,100.0
2022-08-05T06:43:57.440Z,100.0
2022-08-05T06:44:49.306Z,100.0
2022-08-05T06:46:04.189Z,100.0
2022-08-05T06:46:51.478Z,100.0
2022-08-05T06:48:36.592Z,100.0
2022-08-05T06:48:58.624Z,100.0
2022-08-05T06:50:01.296Z,100.0
2022-08-05T06:50:55.903Z,100.0
2022-08-05T06:51:56.508Z,100.0
2022-08-05T06:52:58.596Z,100.0
2022-08-05T06:53:58.718Z,100.0
2022-08-05T06:54:59.319Z,100.0
2022-08-05T06:56:00.282Z,100.0
2022-08-05T06:58:03.330Z,100.0
2022-08-05T06:58:19.831Z,100.0
2022-08-05T06:59:04.044Z,100.0
2022-08-05T07:00:04.663Z,100.0
2022-08-05T07:01:05.541Z,100.0
2022-08-05T07:02:06.183Z,100.0
2022-08-05T07:03:08.792Z,100.0
2022-08-05T07:04:08.381Z,100.0
2022-08-05T07:05:14.297Z,100.0
2022-08-05T07:06:15.056Z,100.0
2022-08-05T07:07:12.184Z,100.0
2022-08-05T07:08:13.784Z,100.0
2022-08-05T07:09:14.386Z,100.0
2022-08-05T07:10:16.339Z,100.0
2022-08-05T07:11:17.172Z,100.0
2022-08-05T07:12:18.769Z,100.0
2022-08-05T07:13:56.768Z,100.0
2022-08-05T07:14:29.327Z,100.0
2022-08-05T07:15:34.799Z,100.0
2022-08-05T07:17:59.254Z,100.0
2022-08-05T07:18:00.542Z,100.0
2022-08-05T07:18:30.247Z,100.0
2022-08-05T07:20:10.667Z,100.0
2022-08-05T07:20:33.843Z,100.0
2022-08-05T07:21:30.211Z,100.0
2022-08-05T07:22:31.811Z,100.0
2022-08-05T07:23:32.416Z,100.0
2022-08-05T07:24:35.054Z,100.0
2022-08-05T07:25:55.217Z,100.0
2022-08-05T07:26:36.406Z,100.0
2022-08-05T07:27:58.374Z,100.0
2022-08-05T07:28:38.617Z,100.0
2022-08-05T07:30:25.573Z,100.0
2022-08-05T07:30:40.908Z,100.0
2022-08-05T07:31:54.394Z,100.0
2022-08-05T07:32:44.105Z,100.0
2022-08-05T07:33:45.703Z,100.0
2022-08-05T07:34:46.309Z,100.0
2022-08-05T07:36:01.485Z,100.0
2022-08-05T07:36:48.511Z,100.0
2022-08-05T07:37:50.111Z,100.0
2022-08-05T07:38:54.668Z,100.0
2022-08-05T07:40:26.257Z,100.0
2022-08-05T07:40:55.552Z,100.0
2022-08-05T07:42:14.288Z,100.0
2022-08-05T07:42:57.128Z,100.0
2022-08-05T07:43:58.862Z,100.0
2022-08-05T07:44:59.481Z,100.0
2022-08-05T07:46:00.980Z,100.0
2022-08-05T07:47:02.574Z,100.0
2022-08-05T07:48:04.171Z,100.0
2022-08-05T07:49:07.932Z,100.0
2022-08-05T07:50:07.367Z,100.0
2022-08-05T07:51:22.913Z,100.0
2022-08-05T07:52:09.570Z,100.0
2022-08-05T07:53:10.176Z,100.0
2022-08-05T07:54:12.681Z,100.0
2022-08-05T07:55:39.365Z,100.0
2022-08-05T07:57:00.102Z,100.0
2022-08-05T07:57:22.602Z,100.0
2022-08-05T07:58:17.588Z,100.0
2022-08-05T07:59:23.291Z,100.0
2022-08-05T08:00:19.349Z,100.0
2022-08-05T08:01:21.966Z,100.0
2022-08-05T08:02:21.551Z,100.0
2022-08-05T08:03:23.147Z,100.0
2022-08-05T08:04:37.628Z,100.0
2022-08-05T08:05:26.469Z,100.0
2022-08-05T08:06:28.182Z,100.0
2022-08-05T08:07:29.197Z,100.0
2022-08-05T08:08:30.203Z,100.0
2022-08-05T08:09:30.808Z,100.0
2022-08-05T08:10:32.072Z,100.0
2022-08-05T08:11:49.491Z,100.0
2022-08-05T08:12:49.795Z,100.0
2022-08-05T08:13:42.712Z,100.0
2022-08-05T08:14:38.275Z,100.0
2022-08-05T08:16:50.338Z,100.0
2022-08-05T08:16:50.814Z,100.0
2022-08-05T08:17:46.202Z,100.0
2022-08-05T08:18:50.241Z,100.0
2022-08-05T08:20:43.664Z,100.0
2022-08-05T08:21:02.410Z,100.0
2022-08-05T08:21:48.485Z,100.0
2022-08-05T08:22:49.091Z,100.0
2022-08-05T08:24:02.840Z,100.0
2022-08-05T08:24:52.149Z,100.0
2022-08-05T08:26:00.163Z,100.0
2022-08-05T08:26:52.532Z,99.8
2022-08-05T08:27:53.134Z,99.2
2022-08-05T08:28:55.161Z,99.7
2022-08-05T08:30:05.680Z,99.6
2022-08-05T08:30:56.934Z,99.8
2022-08-05T08:31:57.829Z,99.6
2022-08-05T08:32:58.435Z,97.9
2022-08-05T08:34:00.060Z,97.6
2022-08-05T08:35:00.654Z,98.0
2022-08-05T08:36:29.470Z,98.0
2022-08-05T08:37:04.842Z,97.9
2022-08-05T08:38:04.445Z,97.9
2022-08-05T08:39:05.081Z,97.9
2022-08-05T08:40:06.642Z,96.8
2022-08-05T08:41:07.256Z,96.5
2022-08-05T08:42:22.489Z,95.4
2022-08-05T08:45:16.808Z,95.2
2022-08-05T08:45:22.151Z,95.8
2022-08-05T08:45:24.390Z,95.9
2022-08-05T08:46:16.202Z,95.2
2022-08-05T08:47:46.879Z,95.6
2022-08-05T08:48:42.706Z,95.2
2022-08-05T08:50:12.823Z,95.2
2022-08-05T08:50:30.726Z,95.1
2022-08-05T08:52:02.246Z,94.3
2022-08-05T08:52:20.870Z,94.3
2022-08-05T08:53:21.472Z,94.7
2022-08-05T08:54:22.071Z,94.3
2022-08-05T08:56:01.770Z,94.7
2022-08-05T08:56:27.196Z,95.4
2022-08-05T08:57:42.108Z,95.2
2022-08-05T08:58:43.910Z,95.3
2022-08-05T08:59:33.680Z,94.5
2022-08-05T09:00:30.701Z,94.7
2022-08-05T09:01:31.356Z,95.4
2022-08-05T09:02:31.887Z,95.8
2022-08-05T09:03:40.446Z,96.2
2022-08-05T09:04:35.082Z,95.4
2022-08-05T09:05:38.808Z,95.8
2022-08-05T09:06:37.296Z,96.3
2022-08-05T09:07:40.016Z,96.2
2022-08-05T09:08:40.642Z,96.6
2022-08-05T09:09:41.247Z,95.8
2022-08-05T09:10:42.680Z,96.4
2022-08-05T09:11:53.179Z,95.2
2022-08-05T09:12:45.876Z,95.9
2022-08-05T09:14:09.264Z,95.6
2022-08-05T09:14:57.115Z,95.7
2022-08-05T09:15:49.685Z,95.9
2022-08-05T09:16:50.309Z,96.2
2022-08-05T09:17:52.909Z,96.2
2022-08-05T09:18:52.915Z,95.8
2022-08-05T09:20:01.748Z,96.0
2022-08-05T09:20:56.107Z,96.6
2022-08-05T09:22:22.027Z,96.6
2022-08-05T09:23:05.159Z,96.0
2022-08-05T09:24:02.451Z,96.8
2022-08-05T09:25:01.508Z,97.3
2022-08-05T09:26:06.296Z,97.0
2022-08-05T09:27:03.686Z,97.9
2022-08-05T09:28:06.486Z,98.4
2022-08-05T09:29:06.079Z,99.4
2022-08-05T09:30:06.880Z,99.3
2022-08-05T09:31:43.708Z,99.7
2022-08-05T09:32:42.251Z,99.9
2022-08-05T09:33:09.735Z,99.7
2022-08-05T09:34:11.331Z,100.0
2022-08-05T09:35:12.927Z,100.0
2022-08-05T09:36:16.679Z,100.0
2022-08-05T09:37:16.855Z,100.0
2022-08-05T09:38:27.210Z,100.0
2022-08-05T09:39:22.361Z,100.0
2022-08-05T09:40:20.720Z,100.0
2022-08-05T09:41:22.248Z,100.0
2022-08-05T09:42:24.417Z,100.0
2022-08-05T09:43:24.454Z,100.0
2022-08-05T09:44:26.053Z,100.0
2022-08-05T09:46:06.084Z,100.0
2022-08-05T09:46:28.798Z,100.0
2022-08-05T09:47:48.360Z,100.0
2022-08-05T09:48:30.997Z,100.0
2022-08-05T09:49:54.426Z,100.0
2022-08-05T09:50:37.692Z,100.0
2022-08-05T09:51:36.559Z,100.0
2022-08-05T09:52:36.416Z,100.0
2022-08-05T09:53:53.397Z,100.0
2022-08-05T09:54:39.614Z,100.0
2022-08-05T09:55:58.237Z,99.9
2022-08-05T09:56:51.648Z,99.3
2022-08-05T09:57:43.938Z,99.2
2022-08-05T09:58:44.553Z,99.3
2022-08-05T09:59:46.152Z,99.4
2022-08-05T10:00:46.756Z,99.5
2022-08-05T10:01:47.543Z,99.9
2022-08-05T10:02:48.223Z,99.9
2022-08-05T10:03:58.641Z,100.0
2022-08-05T10:04:50.028Z,100.0
2022-08-05T10:05:50.635Z,100.0
2022-08-05T10:06:58.796Z,100.0
2022-08-05T10:08:34.999Z,100.0
2022-08-05T10:08:55.648Z,100.0
2022-08-05T10:10:14.872Z,99.8
2022-08-05T10:10:57.649Z,99.9
2022-08-05T10:11:59.201Z,100.0
2022-08-05T10:12:59.811Z,100.0
2022-08-05T10:14:00.411Z,99.8
2022-08-05T10:15:01.016Z,100.0
2022-08-05T10:16:02.104Z,99.8
2022-08-05T10:17:02.643Z,100.0
2022-08-05T10:18:04.242Z,100.0
2022-08-05T10:19:09.368Z,100.0
2022-08-05T10:20:10.832Z,100.0
2022-08-05T10:21:11.820Z,100.0
2022-08-05T10:22:15.856Z,100.0
2022-08-05T10:23:34.209Z,100.0
2022-08-05T10:24:14.034Z,100.0
2022-08-05T10:25:15.436Z,100.0
2022-08-05T10:26:16.222Z,99.8
2022-08-05T10:27:16.899Z,99.3
2022-08-05T10:28:29.418Z,99.4
2022-08-05T10:30:05.718Z,99.7
2022-08-05T10:32:49.068Z,99.7
2022-08-05T10:32:52.142Z,99.7
2022-08-05T10:32:54.067Z,99.9
2022-08-05T10:33:25.457Z,99.4
2022-08-05T10:34:30.177Z,99.4
2022-08-05T10:35:33.704Z,99.1
2022-08-05T10:36:30.244Z,99.7
2022-08-05T10:37:40.183Z,99.4
2022-08-05T10:38:33.248Z,99.6
2022-08-05T10:40:03.196Z,99.5
2022-08-05T10:40:35.577Z,99.7
2022-08-05T10:41:46.521Z,99.5
2022-08-05T10:42:37.728Z,100.0
2022-08-05T10:43:38.456Z,100.0
2022-08-05T10:44:39.069Z,100.0
2022-08-05T10:45:42.070Z,100.0
2022-08-05T10:46:42.289Z,100.0
2022-08-05T10:47:42.867Z,100.0
2022-08-05T10:48:56.725Z,100.0
2022-08-05T10:49:48.786Z,100.0
2022-08-05T10:50:46.685Z,100.0
2022-08-05T10:51:53.217Z,100.0
2022-08-05T10:52:49.724Z,100.0
2022-08-05T10:53:50.409Z,100.0
2022-08-05T10:54:56.737Z,100.0
2022-08-05T10:56:05.437Z,100.0
2022-08-05T10:56:53.298Z,100.0
2022-08-05T10:57:53.843Z,100.0
2022-08-05T10:58:55.449Z,100.0
2022-08-05T11:00:02.963Z,100.0
2022-08-05T11:01:02.783Z,100.0
2022-08-05T11:02:04.912Z,100.0
2022-08-05T11:03:23.347Z,100.0
2022-08-05T11:04:02.620Z,100.0
2022-08-05T11:05:03.481Z,100.0
2022-08-05T11:06:04.083Z,100.0
2022-08-05T11:07:05.259Z,100.0
2022-08-05T11:08:22.195Z,100.0
2022-08-05T11:09:07.456Z,100.0
2022-08-05T11:10:09.922Z,100.0
2022-08-05T11:11:16.334Z,100.0
2022-08-05T11:12:11.366Z,100.0
2022-08-05T11:13:12.354Z,100.0
2022-08-05T11:14:13.946Z,100.0
2022-08-05T11:15:19.933Z,99.9
2022-08-05T11:16:16.144Z,99.9
2022-08-05T11:17:57.744Z,99.8
2022-08-05T11:18:18.342Z,99.1
2022-08-05T11:20:10.501Z,98.2
2022-08-05T11:20:22.224Z,98.3
2022-08-05T11:21:22.957Z,97.8
2022-08-05T11:22:23.579Z,98.1
2022-08-05T11:23:25.232Z,99.1
2022-08-05T11:24:30.383Z,99.5
2022-08-05T11:26:05.370Z,100.0
2022-08-05T11:26:33.056Z,99.3
2022-08-05T11:27:45.737Z,99.6
2022-08-05T11:28:32.246Z,99.5
2022-08-05T11:29:33.842Z,99.7
2022-08-05T11:30:34.514Z,98.5
2022-08-05T11:31:57.003Z,98.5
2022-08-05T11:32:36.711Z,98.1
2022-08-05T11:33:47.878Z,98.0
2022-08-05T11:34:38.948Z,98.8
2022-08-05T11:35:39.520Z,96.5
2022-08-05T11:36:42.799Z,96.9
2022-08-05T11:38:28.523Z,97.0
2022-08-05T11:38:45.915Z,95.0
2022-08-05T11:39:48.045Z,95.5
2022-08-05T11:40:46.522Z,95.8
2022-08-05T11:42:01.106Z,95.3
2022-08-05T11:42:47.744Z,95.5
2022-08-05T11:44:04.491Z,94.8
2022-08-05T11:44:53.848Z,95.8
2022-08-05T11:46:27.508Z,96.7
2022-08-05T11:47:09.563Z,96.9
2022-08-05T11:47:55.158Z,96.7
2022-08-05T11:48:55.841Z,96.7
2022-08-05T11:49:56.444Z,96.4
2022-08-05T11:50:58.040Z,96.2
2022-08-05T11:51:58.659Z,96.1
2022-08-05T11:52:59.282Z,96.3
2022-08-05T11:54:00.878Z,95.7
2022-08-05T11:55:07.073Z,95.2
2022-08-05T11:56:04.071Z,95.2
2022-08-05T11:57:15.180Z,95.5
2022-08-05T11:58:10.029Z,93.3
2022-08-05T11:59:13.900Z,93.7
2022-08-05T12:00:09.527Z,93.5
2022-08-05T12:01:10.521Z,93.7
2022-08-05T12:02:24.215Z,93.7
2022-08-05T12:03:12.886Z,93.1
2022-08-05T12:04:13.649Z,92.0
2022-08-05T12:05:18.331Z,91.9
2022-08-05T12:06:15.837Z,92.4
2022-08-05T12:07:16.955Z,93.2
2022-08-05T12:08:18.637Z,92.3
2022-08-05T12:09:19.820Z,92.6
2022-08-05T12:10:20.734Z,91.5
2022-08-05T12:11:21.337Z,92.1
2022-08-05T12:12:21.960Z,91.8
2022-08-05T12:13:47.926Z,91.5
2022-08-05T12:14:25.156Z,90.2
2022-08-05T12:15:38.032Z,90.0
2022-08-05T12:16:27.357Z,90.4
2022-08-05T12:18:03.060Z,90.9
2022-08-05T12:18:32.969Z,90.2
2022-08-05T12:20:16.991Z,90.4
2022-08-05T12:20:33.924Z,90.3
2022-08-05T12:21:39.096Z,90.6
2022-08-05T12:22:36.105Z,90.6
2022-08-05T12:23:36.727Z,89.7
2022-08-05T12:24:37.348Z,89.7
2022-08-05T12:25:38.680Z,89.4
2022-08-05T12:26:39.283Z,89.6
2022-08-05T12:27:52.838Z,89.1
2022-08-05T12:28:42.473Z,88.6
2022-08-05T12:29:44.078Z,88.4
2022-08-05T12:30:46.065Z,88.9
2022-08-05T12:31:49.828Z,88.3
2022-08-05T12:32:50.448Z,85.1
2022-08-05T12:33:48.531Z,85.6
2022-08-05T12:34:49.136Z,84.9
2022-08-05T12:35:50.284Z,84.3
2022-08-05T12:36:51.871Z,85.5
2022-08-05T12:37:53.195Z,86.1
2022-08-05T12:38:53.985Z,84.3
2022-08-05T12:39:54.644Z,83.9
2022-08-05T12:40:56.161Z,81.9
2022-08-05T12:41:58.126Z,82.3
2022-08-05T12:42:58.406Z,84.4
2022-08-05T12:43:59.075Z,85.8
2022-08-05T12:45:00.003Z,82.0
2022-08-05T12:46:00.604Z,83.5
2022-08-05T12:47:01.814Z,84.0
2022-08-05T12:48:17.393Z,82.1
2022-08-05T12:49:05.758Z,80.9
2022-08-05T12:50:06.358Z,81.1
2022-08-05T12:51:05.643Z,81.0
2022-08-05T12:52:12.686Z,80.3
2022-08-05T12:53:08.832Z,80.8
2022-08-05T12:54:16.797Z,79.1
2022-08-05T12:55:12.025Z,79.9
2022-08-05T12:56:34.633Z,78.6
2022-08-05T12:57:14.419Z,79.8
2022-08-05T12:58:51.271Z,78.9
2022-08-05T12:59:20.880Z,80.0
2022-08-05T13:02:00.871Z,79.3
2022-08-05T13:02:03.017Z,79.1
2022-08-05T13:02:19.541Z,78.8
2022-08-05T13:03:20.153Z,81.0
2022-08-05T13:04:21.309Z,79.5
2022-08-05T13:05:21.980Z,81.1
2022-08-05T13:06:22.583Z,81.0
2022-08-05T13:07:54.714Z,79.6
2022-08-05T13:08:26.939Z,77.8
2022-08-05T13:09:28.331Z,79.9
2022-08-05T13:10:28.646Z,79.0
2022-08-05T13:12:02.352Z,78.9
2022-08-05T13:12:29.232Z,78.1
2022-08-05T13:14:06.687Z,78.5
2022-08-05T13:14:36.566Z,78.7
2022-08-05T13:15:36.069Z,77.0
2022-08-05T13:16:34.625Z,79.5
2022-08-05T13:17:41.789Z,80.8
2022-08-05T13:18:37.823Z,79.7